KUGN/UGN METAR and TAF weather

Enter ICAO airport designator
Station Type Date Time Source
KUGN METAR 2019/04/25 09:55 UTC NOAA

KUGN 250955Z AUTO 00000KT 6SM BR CLR 03/01 A2981 RMK AO2 SLP098 T00280011


Station Type Date Time Source
KUGN Decoded METAR 2019/04/25 09:55 UTC NOAA

CHICAGO/WAUKEGAN REGIONAL, IL, United States (KUGN) 42-25N 087-52W
Apr 25, 2019 - 05:55 AM EDT / 2019.04.25 0955 UTC
Wind: Calm:0
Visibility: 6 mile(s):0
Sky conditions: clear
Weather: mist
Temperature: 37.0 F (2.8 C)
Dew Point: 34.0 F (1.1 C)
Relative Humidity: 88%
Pressure (altimeter): 29.81 in. Hg (1009 hPa)
ob: KUGN 250955Z AUTO 00000KT 6SM BR CLR 03/01 A2981 RMK AO2 SLP098 T00280011
cycle: 10

Station Type Date Time Source
KUGN TAF UTC NOAA

Error!

Example: see airport list